SPJL/JUL METAR and TAF weather

Enter ICAO airport designator
Station Type Date Time Source
SPJL METAR 2019/08/24 01:00 UTC NOAA

SPJL 240100Z 22008KT 9999 SCT025 09/M01 Q1038 RMK PP000


Station Type Date Time Source
SPJL Decoded METAR 2019/08/24 01:00 UTC NOAA

Station name not available
Aug 23, 2019 - 09:00 PM EDT / 2019.08.24 0100 UTC
Wind: from the SW (220 degrees) at 9 MPH (8 KT):0
Visibility: greater than 7 mile(s):0
Sky conditions: partly cloudy
Temperature: 48 F (9 C)
Dew Point: 30 F (-1 C)
Relative Humidity: 49%
Pressure (altimeter): 30.65 in. Hg (1038 hPa)
ob: SPJL 240100Z 22008KT 9999 SCT025 09/M01 Q1038 RMK PP000
cycle: 1

Station Type Date Time Source
SPJL TAF 2019/08/23 18:33 UTC NOAA

TAF SPJL 231700Z 2318/2418 12008KT CAVOK TX18/2319Z TNM03/2410Z
FM240100 20005KT CAVOK

Example: see airport list